Terminal Aerodrome Forecast
Issued by NWS Quad Cities IA IL

Home | Current Version | Previous Version | Text Only | Print | Product List | Glossary On
Versions: 1 2 3 4 5 6 7 8 9 10 11 12 13
664
FTUS43 KDVN 241144
TAFDBQ
TAF
KDBQ 241144Z 2412/2512 18006KT P6SM VCSH BKN050
     FM241400 20008KT P6SM BKN040
     FM242200 21010KT P6SM VCTS BKN050CB
     FM250100 VRB02KT P6SM BKN070
     FM250800 15005KT 6SM BR VCSH BKN035=

USA.gov is the U.S. government's official web portal to all federal, state and local government web resources and services.